sensor_id;sensor_type;location;lat;lon;timestamp;temperature;humidity
16785;DHT22;8509;52.178;5.404;2023-09-19T00:00:23;14.60;99.90
16785;DHT22;8509;52.178;5.404;2023-09-19T00:02:56;14.60;99.90
16785;DHT22;8509;52.178;5.404;2023-09-19T00:05:25;14.60;99.90
16785;DHT22;8509;52.178;5.404;2023-09-19T00:07:54;14.60;99.90
16785;DHT22;8509;52.178;5.404;2023-09-19T00:10:23;14.60;99.90
16785;DHT22;8509;52.178;5.404;2023-09-19T00:12:55;14.60;99.90
16785;DHT22;8509;52.178;5.404;2023-09-19T00:15:22;14.60;99.90
16785;DHT22;8509;52.178;5.404;2023-09-19T00:17:47;14.60;99.90
16785;DHT22;8509;52.178;5.404;2023-09-19T00:20:14;14.60;99.90
16785;DHT22;8509;52.178;5.404;2023-09-19T00:22:43;14.70;99.90
16785;DHT22;8509;52.178;5.404;2023-09-19T00:25:09;14.70;99.90
16785;DHT22;8509;52.178;5.404;2023-09-19T00:27:40;14.60;99.90
16785;DHT22;8509;52.178;5.404;2023-09-19T00:30:12;14.70;99.90
16785;DHT22;8509;52.178;5.404;2023-09-19T00:32:50;14.70;99.90
16785;DHT22;8509;52.178;5.404;2023-09-19T00:35:23;14.70;99.90
16785;DHT22;8509;52.178;5.404;2023-09-19T00:37:53;14.70;99.90
16785;DHT22;8509;52.178;5.404;2023-09-19T00:40:19;14.70;99.90
16785;DHT22;8509;52.178;5.404;2023-09-19T00:42:47;14.70;99.90
16785;DHT22;8509;52.178;5.404;2023-09-19T00:45:15;14.70;99.90
16785;DHT22;8509;52.178;5.404;2023-09-19T00:47:44;14.70;99.90
16785;DHT22;8509;52.178;5.404;2023-09-19T00:50:12;14.70;99.90
16785;DHT22;8509;52.178;5.404;2023-09-19T00:52:41;14.80;99.90
16785;DHT22;8509;52.178;5.404;2023-09-19T00:55:08;14.70;99.90
16785;DHT22;8509;52.178;5.404;2023-09-19T00:57:35;14.70;99.90
16785;DHT22;8509;52.178;5.404;2023-09-19T01:00:03;14.80;99.90
16785;DHT22;8509;52.178;5.404;2023-09-19T01:02:34;14.70;99.90
16785;DHT22;8509;52.178;5.404;2023-09-19T01:05:00;14.70;99.90
16785;DHT22;8509;52.178;5.404;2023-09-19T01:07:30;14.70;99.90
16785;DHT22;8509;52.178;5.404;2023-09-19T01:10:00;14.60;99.90
16785;DHT22;8509;52.178;5.404;2023-09-19T01:12:41;14.60;99.90
16785;DHT22;8509;52.178;5.404;2023-09-19T01:15:28;14.50;99.90
16785;DHT22;8509;52.178;5.404;2023-09-19T01:18:23;14.50;99.90
16785;DHT22;8509;52.178;5.404;2023-09-19T01:24:08;14.50;99.90
16785;DHT22;8509;52.178;5.404;2023-09-19T01:29:38;14.50;99.90
16785;DHT22;8509;52.178;5.404;2023-09-19T01:32:06;14.40;99.90
16785;DHT22;8509;52.178;5.404;2023-09-19T01:34:51;14.40;99.90
16785;DHT22;8509;52.178;5.404;2023-09-19T01:37:19;14.40;99.90
16785;DHT22;8509;52.178;5.404;2023-09-19T01:39:53;14.30;99.90
16785;DHT22;8509;52.178;5.404;2023-09-19T01:45:09;14.30;99.90
16785;DHT22;8509;52.178;5.404;2023-09-19T01:47:53;14.30;99.90
16785;DHT22;8509;52.178;5.404;2023-09-19T01:50:34;14.30;99.90
16785;DHT22;8509;52.178;5.404;2023-09-19T01:53:43;14.40;99.90
16785;DHT22;8509;52.178;5.404;2023-09-19T01:56:21;14.40;99.90
16785;DHT22;8509;52.178;5.404;2023-09-19T01:58:55;14.30;99.90
16785;DHT22;8509;52.178;5.404;2023-09-19T02:01:24;14.40;99.90
16785;DHT22;8509;52.178;5.404;2023-09-19T02:03:51;14.40;99.90
16785;DHT22;8509;52.178;5.404;2023-09-19T02:06:18;14.40;99.90
16785;DHT22;8509;52.178;5.404;2023-09-19T02:08:44;14.40;99.90
16785;DHT22;8509;52.178;5.404;2023-09-19T02:11:11;14.40;99.90
16785;DHT22;8509;52.178;5.404;2023-09-19T02:13:37;14.40;99.90
16785;DHT22;8509;52.178;5.404;2023-09-19T02:16:03;14.40;99.90
16785;DHT22;8509;52.178;5.404;2023-09-19T02:18:30;14.40;99.90
16785;DHT22;8509;52.178;5.404;2023-09-19T02:20:56;14.40;99.90
16785;DHT22;8509;52.178;5.404;2023-09-19T02:23:24;14.20;99.90
16785;DHT22;8509;52.178;5.404;2023-09-19T02:25:56;14.30;99.90
16785;DHT22;8509;52.178;5.404;2023-09-19T02:28:31;14.30;99.90
16785;DHT22;8509;52.178;5.404;2023-09-19T02:30:58;14.30;99.90
16785;DHT22;8509;52.178;5.404;2023-09-19T02:33:24;14.40;99.90
16785;DHT22;8509;52.178;5.404;2023-09-19T02:35:49;14.40;99.90
16785;DHT22;8509;52.178;5.404;2023-09-19T02:38:15;14.50;99.90
16785;DHT22;8509;52.178;5.404;2023-09-19T02:40:46;14.40;99.90
16785;DHT22;8509;52.178;5.404;2023-09-19T02:43:12;14.40;99.90
16785;DHT22;8509;52.178;5.404;2023-09-19T02:45:37;14.40;99.90
16785;DHT22;8509;52.178;5.404;2023-09-19T02:48:04;14.30;99.90
16785;DHT22;8509;52.178;5.404;2023-09-19T02:50:30;14.30;99.90
16785;DHT22;8509;52.178;5.404;2023-09-19T02:52:55;14.30;99.90
16785;DHT22;8509;52.178;5.404;2023-09-19T02:55:21;14.30;99.90
16785;DHT22;8509;52.178;5.404;2023-09-19T02:57:52;14.20;99.90
16785;DHT22;8509;52.178;5.404;2023-09-19T03:00:19;14.20;99.90
16785;DHT22;8509;52.178;5.404;2023-09-19T03:02:52;14.20;99.90
16785;DHT22;8509;52.178;5.404;2023-09-19T03:05:19;14.10;99.90
16785;DHT22;8509;52.178;5.404;2023-09-19T03:07:47;14.20;99.90
16785;DHT22;8509;52.178;5.404;2023-09-19T03:10:19;14.20;99.90
16785;DHT22;8509;52.178;5.404;2023-09-19T03:12:45;14.10;99.90
16785;DHT22;8509;52.178;5.404;2023-09-19T03:15:11;14.00;99.90
16785;DHT22;8509;52.178;5.404;2023-09-19T03:17:37;14.00;99.90
16785;DHT22;8509;52.178;5.404;2023-09-19T03:20:03;13.90;99.90
16785;DHT22;8509;52.178;5.404;2023-09-19T03:22:30;13.90;99.90
16785;DHT22;8509;52.178;5.404;2023-09-19T03:24:55;13.80;99.90
16785;DHT22;8509;52.178;5.404;2023-09-19T03:27:21;13.80;99.90
16785;DHT22;8509;52.178;5.404;2023-09-19T03:29:47;13.70;99.90
16785;DHT22;8509;52.178;5.404;2023-09-19T03:32:13;13.70;99.90
16785;DHT22;8509;52.178;5.404;2023-09-19T03:34:39;13.70;99.90
16785;DHT22;8509;52.178;5.404;2023-09-19T03:37:09;13.70;99.90
16785;DHT22;8509;52.178;5.404;2023-09-19T03:39:35;13.70;99.90
16785;DHT22;8509;52.178;5.404;2023-09-19T03:42:01;13.70;99.90
16785;DHT22;8509;52.178;5.404;2023-09-19T03:44:29;13.60;99.90
16785;DHT22;8509;52.178;5.404;2023-09-19T03:46:55;13.60;99.90
16785;DHT22;8509;52.178;5.404;2023-09-19T03:49:22;13.40;99.90
16785;DHT22;8509;52.178;5.404;2023-09-19T03:51:48;13.30;99.90
16785;DHT22;8509;52.178;5.404;2023-09-19T03:54:13;13.40;99.90
16785;DHT22;8509;52.178;5.404;2023-09-19T03:56:39;13.40;99.90
16785;DHT22;8509;52.178;5.404;2023-09-19T03:59:04;13.30;99.90
16785;DHT22;8509;52.178;5.404;2023-09-19T04:01:30;13.30;99.90
16785;DHT22;8509;52.178;5.404;2023-09-19T04:03:58;13.30;99.90
16785;DHT22;8509;52.178;5.404;2023-09-19T04:06:24;13.30;99.90
16785;DHT22;8509;52.178;5.404;2023-09-19T04:08:49;13.30;99.90
16785;DHT22;8509;52.178;5.404;2023-09-19T04:11:15;13.30;99.90
16785;DHT22;8509;52.178;5.404;2023-09-19T04:13:40;13.20;99.90
16785;DHT22;8509;52.178;5.404;2023-09-19T04:16:06;13.20;99.90
16785;DHT22;8509;52.178;5.404;2023-09-19T04:18:35;13.10;99.90
16785;DHT22;8509;52.178;5.404;2023-09-19T04:21:04;13.10;99.90
16785;DHT22;8509;52.178;5.404;2023-09-19T04:23:31;13.10;99.90
16785;DHT22;8509;52.178;5.404;2023-09-19T04:25:57;13.20;99.90
16785;DHT22;8509;52.178;5.404;2023-09-19T04:28:23;13.30;99.90
16785;DHT22;8509;52.178;5.404;2023-09-19T04:30:50;13.20;99.90
16785;DHT22;8509;52.178;5.404;2023-09-19T04:33:15;13.20;99.90
16785;DHT22;8509;52.178;5.404;2023-09-19T04:35:41;13.30;99.90
16785;DHT22;8509;52.178;5.404;2023-09-19T04:38:08;13.30;99.90
16785;DHT22;8509;52.178;5.404;2023-09-19T04:40:34;13.50;99.90
16785;DHT22;8509;52.178;5.404;2023-09-19T04:43:00;13.40;99.90
16785;DHT22;8509;52.178;5.404;2023-09-19T04:45:27;13.50;99.90
16785;DHT22;8509;52.178;5.404;2023-09-19T04:47:53;13.40;99.90
16785;DHT22;8509;52.178;5.404;2023-09-19T04:50:20;13.30;99.90
16785;DHT22;8509;52.178;5.404;2023-09-19T04:52:49;13.40;99.90
16785;DHT22;8509;52.178;5.404;2023-09-19T04:55:17;13.20;99.90
16785;DHT22;8509;52.178;5.404;2023-09-19T04:57:44;13.20;99.90
16785;DHT22;8509;52.178;5.404;2023-09-19T05:00:12;13.20;99.90
16785;DHT22;8509;52.178;5.404;2023-09-19T05:02:41;13.10;99.90
16785;DHT22;8509;52.178;5.404;2023-09-19T05:05:08;13.00;99.90
16785;DHT22;8509;52.178;5.404;2023-09-19T05:07:34;13.00;99.90
16785;DHT22;8509;52.178;5.404;2023-09-19T05:10:00;12.90;99.90
16785;DHT22;8509;52.178;5.404;2023-09-19T05:12:29;12.90;99.90
16785;DHT22;8509;52.178;5.404;2023-09-19T05:14:55;12.90;99.90
16785;DHT22;8509;52.178;5.404;2023-09-19T05:17:20;13.10;99.90
16785;DHT22;8509;52.178;5.404;2023-09-19T05:19:46;12.90;99.90
16785;DHT22;8509;52.178;5.404;2023-09-19T05:22:12;12.90;99.90
16785;DHT22;8509;52.178;5.404;2023-09-19T05:24:38;12.90;99.90
16785;DHT22;8509;52.178;5.404;2023-09-19T05:27:04;12.90;99.90
16785;DHT22;8509;52.178;5.404;2023-09-19T05:29:32;12.90;99.90
16785;DHT22;8509;52.178;5.404;2023-09-19T05:31:59;12.90;99.90
16785;DHT22;8509;52.178;5.404;2023-09-19T05:34:25;12.90;99.90
16785;DHT22;8509;52.178;5.404;2023-09-19T05:36:53;12.90;99.90
16785;DHT22;8509;52.178;5.404;2023-09-19T05:39:19;12.90;99.90
16785;DHT22;8509;52.178;5.404;2023-09-19T05:41:45;13.00;99.90
16785;DHT22;8509;52.178;5.404;2023-09-19T05:44:13;13.10;99.90
16785;DHT22;8509;52.178;5.404;2023-09-19T05:46:39;13.00;99.90
16785;DHT22;8509;52.178;5.404;2023-09-19T05:49:05;13.10;99.90
16785;DHT22;8509;52.178;5.404;2023-09-19T05:51:31;13.10;99.90
16785;DHT22;8509;52.178;5.404;2023-09-19T05:53:56;13.10;99.90
16785;DHT22;8509;52.178;5.404;2023-09-19T05:56:23;13.10;99.90
16785;DHT22;8509;52.178;5.404;2023-09-19T05:58:49;13.20;99.90
16785;DHT22;8509;52.178;5.404;2023-09-19T06:01:17;13.30;99.90
16785;DHT22;8509;52.178;5.404;2023-09-19T06:03:43;13.20;99.90
16785;DHT22;8509;52.178;5.404;2023-09-19T06:06:09;13.30;99.90
16785;DHT22;8509;52.178;5.404;2023-09-19T06:08:34;13.30;99.90
16785;DHT22;8509;52.178;5.404;2023-09-19T06:11:00;13.40;99.90
16785;DHT22;8509;52.178;5.404;2023-09-19T06:13:28;13.50;99.90
16785;DHT22;8509;52.178;5.404;2023-09-19T06:15:55;13.60;99.90
16785;DHT22;8509;52.178;5.404;2023-09-19T06:18:22;13.60;99.90
16785;DHT22;8509;52.178;5.404;2023-09-19T06:20:51;13.60;99.90
16785;DHT22;8509;52.178;5.404;2023-09-19T06:23:18;13.80;99.90
16785;DHT22;8509;52.178;5.404;2023-09-19T06:25:45;13.90;99.90
16785;DHT22;8509;52.178;5.404;2023-09-19T06:28:11;14.00;99.90
16785;DHT22;8509;52.178;5.404;2023-09-19T06:30:40;14.10;99.90
16785;DHT22;8509;52.178;5.404;2023-09-19T06:33:05;14.20;99.90
16785;DHT22;8509;52.178;5.404;2023-09-19T06:35:33;14.30;99.90
16785;DHT22;8509;52.178;5.404;2023-09-19T06:38:01;14.40;99.90
16785;DHT22;8509;52.178;5.404;2023-09-19T06:40:28;14.50;99.90
16785;DHT22;8509;52.178;5.404;2023-09-19T06:42:56;14.60;99.90
16785;DHT22;8509;52.178;5.404;2023-09-19T06:45:22;14.60;99.90
16785;DHT22;8509;52.178;5.404;2023-09-19T06:47:52;14.70;99.90
16785;DHT22;8509;52.178;5.404;2023-09-19T06:50:18;14.80;99.90
16785;DHT22;8509;52.178;5.404;2023-09-19T06:52:52;14.90;99.90
16785;DHT22;8509;52.178;5.404;2023-09-19T06:55:19;15.00;99.90
16785;DHT22;8509;52.178;5.404;2023-09-19T06:57:48;15.10;99.90
16785;DHT22;8509;52.178;5.404;2023-09-19T07:00:15;15.10;99.90
16785;DHT22;8509;52.178;5.404;2023-09-19T07:02:55;15.20;99.90
16785;DHT22;8509;52.178;5.404;2023-09-19T07:05:21;15.20;99.90
16785;DHT22;8509;52.178;5.404;2023-09-19T07:07:47;15.40;99.90
16785;DHT22;8509;52.178;5.404;2023-09-19T07:10:12;15.40;99.90
16785;DHT22;8509;52.178;5.404;2023-09-19T07:12:38;15.50;99.90
16785;DHT22;8509;52.178;5.404;2023-09-19T07:15:04;15.60;99.90
16785;DHT22;8509;52.178;5.404;2023-09-19T07:17:31;15.70;99.90
16785;DHT22;8509;52.178;5.404;2023-09-19T07:19:58;15.70;99.90
16785;DHT22;8509;52.178;5.404;2023-09-19T07:22:26;15.80;99.90
16785;DHT22;8509;52.178;5.404;2023-09-19T07:24:51;15.80;99.90
16785;DHT22;8509;52.178;5.404;2023-09-19T07:27:17;15.80;99.90
16785;DHT22;8509;52.178;5.404;2023-09-19T07:29:43;15.90;99.90
16785;DHT22;8509;52.178;5.404;2023-09-19T07:32:08;16.10;99.90
16785;DHT22;8509;52.178;5.404;2023-09-19T07:34:35;16.20;99.90
16785;DHT22;8509;52.178;5.404;2023-09-19T07:40:37;16.10;99.90
16785;DHT22;8509;52.178;5.404;2023-09-19T07:43:38;16.40;99.90
16785;DHT22;8509;52.178;5.404;2023-09-19T07:46:09;16.50;99.90
16785;DHT22;8509;52.178;5.404;2023-09-19T07:48:36;16.70;99.90
16785;DHT22;8509;52.178;5.404;2023-09-19T07:51:06;16.90;99.90
16785;DHT22;8509;52.178;5.404;2023-09-19T07:53:33;17.00;99.90
16785;DHT22;8509;52.178;5.404;2023-09-19T07:56:06;17.30;99.90
16785;DHT22;8509;52.178;5.404;2023-09-19T07:58:33;17.30;99.90
16785;DHT22;8509;52.178;5.404;2023-09-19T08:01:03;17.20;99.90
16785;DHT22;8509;52.178;5.404;2023-09-19T08:03:29;17.10;99.90
16785;DHT22;8509;52.178;5.404;2023-09-19T08:05:56;17.10;99.90
16785;DHT22;8509;52.178;5.404;2023-09-19T08:08:23;17.20;99.90
16785;DHT22;8509;52.178;5.404;2023-09-19T08:10:53;17.30;99.90
16785;DHT22;8509;52.178;5.404;2023-09-19T08:13:21;17.50;99.90
16785;DHT22;8509;52.178;5.404;2023-09-19T08:15:47;17.80;99.90
16785;DHT22;8509;52.178;5.404;2023-09-19T08:18:16;18.00;99.90
16785;DHT22;8509;52.178;5.404;2023-09-19T08:20:43;18.20;99.90
16785;DHT22;8509;52.178;5.404;2023-09-19T08:23:11;18.30;99.90
16785;DHT22;8509;52.178;5.404;2023-09-19T08:25:37;18.30;99.90
16785;DHT22;8509;52.178;5.404;2023-09-19T08:28:04;18.20;99.90
16785;DHT22;8509;52.178;5.404;2023-09-19T08:30:34;18.30;99.90
16785;DHT22;8509;52.178;5.404;2023-09-19T08:33:00;18.30;99.90
16785;DHT22;8509;52.178;5.404;2023-09-19T08:35:29;18.40;99.90
16785;DHT22;8509;52.178;5.404;2023-09-19T08:37:54;18.50;99.90
16785;DHT22;8509;52.178;5.404;2023-09-19T08:40:26;18.60;99.90
16785;DHT22;8509;52.178;5.404;2023-09-19T08:42:55;18.80;99.90
16785;DHT22;8509;52.178;5.404;2023-09-19T08:45:23;18.90;99.90
16785;DHT22;8509;52.178;5.404;2023-09-19T08:50:54;18.90;99.90
16785;DHT22;8509;52.178;5.404;2023-09-19T08:56:00;18.90;99.90
16785;DHT22;8509;52.178;5.404;2023-09-19T08:58:35;18.80;99.90
16785;DHT22;8509;52.178;5.404;2023-09-19T09:01:06;18.80;99.90
16785;DHT22;8509;52.178;5.404;2023-09-19T09:03:33;18.90;99.90
16785;DHT22;8509;52.178;5.404;2023-09-19T09:06:01;18.80;99.90
16785;DHT22;8509;52.178;5.404;2023-09-19T09:08:27;18.80;99.90
16785;DHT22;8509;52.178;5.404;2023-09-19T09:10:56;18.80;99.90
16785;DHT22;8509;52.178;5.404;2023-09-19T09:13:23;18.80;99.90
16785;DHT22;8509;52.178;5.404;2023-09-19T09:15:51;18.90;99.90
16785;DHT22;8509;52.178;5.404;2023-09-19T09:18:17;18.80;99.90
16785;DHT22;8509;52.178;5.404;2023-09-19T09:20:43;19.00;99.90
16785;DHT22;8509;52.178;5.404;2023-09-19T09:23:10;19.20;99.90
16785;DHT22;8509;52.178;5.404;2023-09-19T09:25:54;19.30;99.90
16785;DHT22;8509;52.178;5.404;2023-09-19T09:28:25;19.10;99.90
16785;DHT22;8509;52.178;5.404;2023-09-19T09:30:52;19.00;99.90
16785;DHT22;8509;52.178;5.404;2023-09-19T09:33:18;19.00;99.90
16785;DHT22;8509;52.178;5.404;2023-09-19T09:35:58;19.10;99.90
16785;DHT22;8509;52.178;5.404;2023-09-19T09:38:27;19.30;99.90
16785;DHT22;8509;52.178;5.404;2023-09-19T09:40:54;19.50;99.90
16785;DHT22;8509;52.178;5.404;2023-09-19T09:43:34;19.70;99.90
16785;DHT22;8509;52.178;5.404;2023-09-19T09:46:07;19.70;99.90
16785;DHT22;8509;52.178;5.404;2023-09-19T09:49:04;19.70;99.90
16785;DHT22;8509;52.178;5.404;2023-09-19T09:51:40;19.70;99.90
16785;DHT22;8509;52.178;5.404;2023-09-19T09:54:12;19.80;99.90
16785;DHT22;8509;52.178;5.404;2023-09-19T09:56:56;20.00;99.90
16785;DHT22;8509;52.178;5.404;2023-09-19T10:02:28;20.10;99.90
16785;DHT22;8509;52.178;5.404;2023-09-19T10:04:56;20.20;99.90
16785;DHT22;8509;52.178;5.404;2023-09-19T10:07:41;20.10;99.90
16785;DHT22;8509;52.178;5.404;2023-09-19T10:10:15;19.90;99.90
16785;DHT22;8509;52.178;5.404;2023-09-19T10:12:47;19.80;99.90
16785;DHT22;8509;52.178;5.404;2023-09-19T10:15:15;19.70;99.90
16785;DHT22;8509;52.178;5.404;2023-09-19T10:17:44;19.50;99.90
16785;DHT22;8509;52.178;5.404;2023-09-19T10:20:13;19.50;99.90
16785;DHT22;8509;52.178;5.404;2023-09-19T10:22:59;19.40;99.90
16785;DHT22;8509;52.178;5.404;2023-09-19T10:25:27;19.30;99.90
16785;DHT22;8509;52.178;5.404;2023-09-19T10:27:54;19.40;99.90
16785;DHT22;8509;52.178;5.404;2023-09-19T10:30:22;19.70;99.90
16785;DHT22;8509;52.178;5.404;2023-09-19T10:33:00;19.80;99.90
16785;DHT22;8509;52.178;5.404;2023-09-19T10:35:26;19.90;99.90
16785;DHT22;8509;52.178;5.404;2023-09-19T10:37:54;19.90;99.90
16785;DHT22;8509;52.178;5.404;2023-09-19T10:40:21;19.80;99.90
16785;DHT22;8509;52.178;5.404;2023-09-19T10:42:52;19.90;99.90
16785;DHT22;8509;52.178;5.404;2023-09-19T10:45:19;20.00;99.90
16785;DHT22;8509;52.178;5.404;2023-09-19T10:47:46;20.10;99.90
16785;DHT22;8509;52.178;5.404;2023-09-19T10:50:20;20.20;99.90
16785;DHT22;8509;52.178;5.404;2023-09-19T10:52:47;20.50;99.90
16785;DHT22;8509;52.178;5.404;2023-09-19T10:55:19;20.70;99.90
16785;DHT22;8509;52.178;5.404;2023-09-19T10:57:46;20.90;99.90
16785;DHT22;8509;52.178;5.404;2023-09-19T11:00:13;21.00;99.90
16785;DHT22;8509;52.178;5.404;2023-09-19T11:05:40;21.30;99.90
16785;DHT22;8509;52.178;5.404;2023-09-19T11:08:10;21.20;99.90
16785;DHT22;8509;52.178;5.404;2023-09-19T11:10:51;21.30;99.90
16785;DHT22;8509;52.178;5.404;2023-09-19T11:13:27;21.20;99.90
16785;DHT22;8509;52.178;5.404;2023-09-19T11:26:48;21.30;99.90
16785;DHT22;8509;52.178;5.404;2023-09-19T11:29:30;21.30;99.90
16785;DHT22;8509;52.178;5.404;2023-09-19T11:31:57;21.20;99.90
16785;DHT22;8509;52.178;5.404;2023-09-19T11:40:25;20.30;99.90
16785;DHT22;8509;52.178;5.404;2023-09-19T11:46:15;20.70;99.90
16785;DHT22;8509;52.178;5.404;2023-09-19T11:48:23;20.70;99.90
16785;DHT22;8509;52.178;5.404;2023-09-19T11:50:51;20.60;99.90
16785;DHT22;8509;52.178;5.404;2023-09-19T11:53:18;20.70;99.90
16785;DHT22;8509;52.178;5.404;2023-09-19T11:55:45;20.90;99.90
16785;DHT22;8509;52.178;5.404;2023-09-19T11:58:18;21.00;99.90
16785;DHT22;8509;52.178;5.404;2023-09-19T12:00:45;21.00;99.90
16785;DHT22;8509;52.178;5.404;2023-09-19T12:03:12;21.20;99.90
16785;DHT22;8509;52.178;5.404;2023-09-19T12:05:43;21.10;99.90
16785;DHT22;8509;52.178;5.404;2023-09-19T12:08:09;21.00;99.90
16785;DHT22;8509;52.178;5.404;2023-09-19T12:10:48;20.60;99.90
16785;DHT22;8509;52.178;5.404;2023-09-19T12:13:18;20.60;99.90
16785;DHT22;8509;52.178;5.404;2023-09-19T12:15:44;20.60;99.90
16785;DHT22;8509;52.178;5.404;2023-09-19T12:18:29;20.60;99.90
16785;DHT22;8509;52.178;5.404;2023-09-19T12:20:55;20.50;99.90
16785;DHT22;8509;52.178;5.404;2023-09-19T12:23:21;20.60;99.90
16785;DHT22;8509;52.178;5.404;2023-09-19T12:25:47;20.50;99.90
16785;DHT22;8509;52.178;5.404;2023-09-19T12:28:14;20.40;99.90
16785;DHT22;8509;52.178;5.404;2023-09-19T12:30:42;20.50;99.90
16785;DHT22;8509;52.178;5.404;2023-09-19T12:33:20;20.30;99.90
16785;DHT22;8509;52.178;5.404;2023-09-19T12:35:47;20.30;99.90
16785;DHT22;8509;52.178;5.404;2023-09-19T12:38:26;20.30;99.90
16785;DHT22;8509;52.178;5.404;2023-09-19T12:40:57;20.40;99.90
16785;DHT22;8509;52.178;5.404;2023-09-19T12:43:25;20.40;99.90
16785;DHT22;8509;52.178;5.404;2023-09-19T12:45:52;20.40;99.90
16785;DHT22;8509;52.178;5.404;2023-09-19T12:48:23;20.40;99.90
16785;DHT22;8509;52.178;5.404;2023-09-19T12:51:10;20.30;99.90
16785;DHT22;8509;52.178;5.404;2023-09-19T12:53:44;20.00;99.90
16785;DHT22;8509;52.178;5.404;2023-09-19T12:56:11;19.90;99.90
16785;DHT22;8509;52.178;5.404;2023-09-19T13:01:19;20.00;99.90
16785;DHT22;8509;52.178;5.404;2023-09-19T13:04:09;20.20;99.90
16785;DHT22;8509;52.178;5.404;2023-09-19T13:06:36;20.40;99.90
16785;DHT22;8509;52.178;5.404;2023-09-19T13:09:11;20.60;99.90
16785;DHT22;8509;52.178;5.404;2023-09-19T13:11:38;20.50;99.90
16785;DHT22;8509;52.178;5.404;2023-09-19T13:17:02;20.20;99.90
16785;DHT22;8509;52.178;5.404;2023-09-19T13:19:48;20.00;99.90
16785;DHT22;8509;52.178;5.404;2023-09-19T13:22:44;19.90;99.90
16785;DHT22;8509;52.178;5.404;2023-09-19T13:25:16;19.70;99.90
16785;DHT22;8509;52.178;5.404;2023-09-19T13:27:50;19.80;99.90
16785;DHT22;8509;52.178;5.404;2023-09-19T13:30:18;20.00;99.90
16785;DHT22;8509;52.178;5.404;2023-09-19T13:32:44;20.10;99.90
16785;DHT22;8509;52.178;5.404;2023-09-19T13:35:10;20.20;99.90
16785;DHT22;8509;52.178;5.404;2023-09-19T13:37:38;20.30;99.90
16785;DHT22;8509;52.178;5.404;2023-09-19T13:40:11;20.50;99.90
16785;DHT22;8509;52.178;5.404;2023-09-19T13:42:37;20.70;99.90
16785;DHT22;8509;52.178;5.404;2023-09-19T13:45:06;20.70;99.90
16785;DHT22;8509;52.178;5.404;2023-09-19T13:47:32;20.80;99.90
16785;DHT22;8509;52.178;5.404;2023-09-19T13:49:58;20.70;99.90
16785;DHT22;8509;52.178;5.404;2023-09-19T13:52:24;20.80;99.90
16785;DHT22;8509;52.178;5.404;2023-09-19T13:54:54;20.90;99.90
16785;DHT22;8509;52.178;5.404;2023-09-19T13:57:22;20.90;99.90
16785;DHT22;8509;52.178;5.404;2023-09-19T13:59:48;20.80;99.90
16785;DHT22;8509;52.178;5.404;2023-09-19T14:02:14;20.60;99.90
16785;DHT22;8509;52.178;5.404;2023-09-19T14:04:40;20.40;99.90
16785;DHT22;8509;52.178;5.404;2023-09-19T14:07:06;20.30;99.90
16785;DHT22;8509;52.178;5.404;2023-09-19T14:09:33;20.20;99.90
16785;DHT22;8509;52.178;5.404;2023-09-19T14:11:59;20.10;99.90
16785;DHT22;8509;52.178;5.404;2023-09-19T14:14:25;20.00;99.90
16785;DHT22;8509;52.178;5.404;2023-09-19T14:16:50;20.00;99.90
16785;DHT22;8509;52.178;5.404;2023-09-19T14:19:18;20.00;99.90
16785;DHT22;8509;52.178;5.404;2023-09-19T14:21:43;20.00;99.90
16785;DHT22;8509;52.178;5.404;2023-09-19T14:24:09;19.90;99.90
16785;DHT22;8509;52.178;5.404;2023-09-19T14:26:36;19.80;99.90
16785;DHT22;8509;52.178;5.404;2023-09-19T14:29:02;19.70;99.90
16785;DHT22;8509;52.178;5.404;2023-09-19T14:31:28;19.70;99.90
16785;DHT22;8509;52.178;5.404;2023-09-19T14:34:00;19.70;99.90
16785;DHT22;8509;52.178;5.404;2023-09-19T14:36:28;19.60;99.90
16785;DHT22;8509;52.178;5.404;2023-09-19T14:38:54;19.70;99.90
16785;DHT22;8509;52.178;5.404;2023-09-19T14:41:20;19.60;99.90
16785;DHT22;8509;52.178;5.404;2023-09-19T14:43:46;19.60;99.90
16785;DHT22;8509;52.178;5.404;2023-09-19T14:46:11;19.60;99.90
16785;DHT22;8509;52.178;5.404;2023-09-19T14:48:37;19.60;99.90
16785;DHT22;8509;52.178;5.404;2023-09-19T14:51:04;19.40;99.90
16785;DHT22;8509;52.178;5.404;2023-09-19T14:53:31;19.40;99.90
16785;DHT22;8509;52.178;5.404;2023-09-19T14:55:57;19.40;99.90
16785;DHT22;8509;52.178;5.404;2023-09-19T14:58:25;19.40;99.90
16785;DHT22;8509;52.178;5.404;2023-09-19T15:00:51;19.40;99.90
16785;DHT22;8509;52.178;5.404;2023-09-19T15:03:18;19.40;99.90
16785;DHT22;8509;52.178;5.404;2023-09-19T15:05:43;19.30;99.90
16785;DHT22;8509;52.178;5.404;2023-09-19T15:08:09;19.30;99.90
16785;DHT22;8509;52.178;5.404;2023-09-19T15:10:34;19.20;99.90
16785;DHT22;8509;52.178;5.404;2023-09-19T15:13:00;19.20;99.90
16785;DHT22;8509;52.178;5.404;2023-09-19T15:15:26;19.30;99.90
16785;DHT22;8509;52.178;5.404;2023-09-19T15:17:51;19.30;99.90
16785;DHT22;8509;52.178;5.404;2023-09-19T15:20:17;19.40;99.90
16785;DHT22;8509;52.178;5.404;2023-09-19T15:22:43;19.40;99.90
16785;DHT22;8509;52.178;5.404;2023-09-19T15:25:09;19.30;99.90
16785;DHT22;8509;52.178;5.404;2023-09-19T15:27:35;19.20;99.90
16785;DHT22;8509;52.178;5.404;2023-09-19T15:30:04;19.30;99.90
16785;DHT22;8509;52.178;5.404;2023-09-19T15:32:30;19.10;99.90
16785;DHT22;8509;52.178;5.404;2023-09-19T15:34:56;19.10;99.90
16785;DHT22;8509;52.178;5.404;2023-09-19T15:37:22;19.10;99.90
16785;DHT22;8509;52.178;5.404;2023-09-19T15:39:47;19.00;99.90
16785;DHT22;8509;52.178;5.404;2023-09-19T15:42:14;19.00;99.90
16785;DHT22;8509;52.178;5.404;2023-09-19T15:44:41;19.00;99.90
16785;DHT22;8509;52.178;5.404;2023-09-19T15:47:08;18.90;99.90
16785;DHT22;8509;52.178;5.404;2023-09-19T15:49:34;18.70;99.90
16785;DHT22;8509;52.178;5.404;2023-09-19T15:52:00;18.70;99.90
16785;DHT22;8509;52.178;5.404;2023-09-19T15:54:26;18.60;99.90
16785;DHT22;8509;52.178;5.404;2023-09-19T15:56:53;18.40;99.90
16785;DHT22;8509;52.178;5.404;2023-09-19T15:59:20;18.30;99.90
16785;DHT22;8509;52.178;5.404;2023-09-19T16:01:46;18.20;99.90
16785;DHT22;8509;52.178;5.404;2023-09-19T16:04:12;18.10;99.90
16785;DHT22;8509;52.178;5.404;2023-09-19T16:06:38;18.10;99.90
16785;DHT22;8509;52.178;5.404;2023-09-19T16:09:05;18.20;99.90
16785;DHT22;8509;52.178;5.404;2023-09-19T16:11:35;18.30;99.90
16785;DHT22;8509;52.178;5.404;2023-09-19T16:14:01;18.30;99.90
16785;DHT22;8509;52.178;5.404;2023-09-19T16:16:27;18.40;99.90
16785;DHT22;8509;52.178;5.404;2023-09-19T16:18:57;18.40;99.90
16785;DHT22;8509;52.178;5.404;2023-09-19T16:21:30;18.50;99.90
16785;DHT22;8509;52.178;5.404;2023-09-19T16:23:57;18.60;99.90
16785;DHT22;8509;52.178;5.404;2023-09-19T16:26:24;18.60;99.90
16785;DHT22;8509;52.178;5.404;2023-09-19T16:28:53;18.60;99.90
16785;DHT22;8509;52.178;5.404;2023-09-19T16:31:19;18.70;99.90
16785;DHT22;8509;52.178;5.404;2023-09-19T16:33:46;18.70;99.90
16785;DHT22;8509;52.178;5.404;2023-09-19T16:36:15;18.70;99.90
16785;DHT22;8509;52.178;5.404;2023-09-19T16:38:43;18.80;99.90
16785;DHT22;8509;52.178;5.404;2023-09-19T16:41:09;18.80;99.90
16785;DHT22;8509;52.178;5.404;2023-09-19T16:43:37;18.80;99.90